createdAt,value
2023-01-11T00:04:06.587Z,24.90
2023-01-11T00:09:08.876Z,24.80
2023-01-11T00:14:11.011Z,24.70
2023-01-11T00:19:13.259Z,24.70
2023-01-11T00:24:16.208Z,24.70
2023-01-11T00:29:18.398Z,24.80
2023-01-11T00:39:23.105Z,25.20
2023-01-11T00:49:46.334Z,25.70
2023-01-11T00:54:48.748Z,25.70
2023-01-11T00:59:50.960Z,25.70
2023-01-11T01:14:58.110Z,25.80
2023-01-11T01:20:00.248Z,25.80
2023-01-11T01:25:02.359Z,25.80
2023-01-11T01:30:06.288Z,25.80
2023-01-11T01:35:09.198Z,25.80
2023-01-11T01:40:12.186Z,26.00
2023-01-11T01:45:24.258Z,26.20
2023-01-11T01:50:32.801Z,25.90
2023-01-11T01:55:38.858Z,26.90
2023-01-11T02:00:44.318Z,27.30
2023-01-11T02:05:47.602Z,27.40
2023-01-11T02:10:50.840Z,27.50
2023-01-11T02:16:07.891Z,27.60
2023-01-11T02:21:26.041Z,27.60
2023-01-11T02:26:31.189Z,27.90
2023-01-11T02:32:17.296Z,27.90
2023-01-11T02:37:42.730Z,28.20
2023-01-11T02:43:11.572Z,28.60
2023-01-11T02:48:35.664Z,28.40
2023-01-11T02:53:55.413Z,28.60
2023-01-11T02:58:58.561Z,28.70
2023-01-11T03:04:00.664Z,29.00
2023-01-11T03:09:30.813Z,29.00
2023-01-11T03:14:46.844Z,29.00
2023-01-11T03:19:54.662Z,28.90
2023-01-11T03:25:24.622Z,29.00
2023-01-11T03:30:32.149Z,29.00
2023-01-11T03:35:48.450Z,29.10
2023-01-11T03:41:01.197Z,29.00
2023-01-11T03:46:03.237Z,29.30
2023-01-11T03:51:10.161Z,29.60
2023-01-11T03:56:16.418Z,29.30
2023-01-11T04:06:21.778Z,29.30
2023-01-11T04:11:23.919Z,29.60
2023-01-11T04:31:33.596Z,30.00
2023-01-11T04:36:35.736Z,30.20
2023-01-11T04:41:57.330Z,30.40
2023-01-11T04:46:59.466Z,30.40
2023-01-11T04:52:01.567Z,30.50
2023-01-11T04:57:03.860Z,30.60
2023-01-11T05:02:06.825Z,31.10
2023-01-11T05:07:09.885Z,31.10
2023-01-11T05:17:15.059Z,31.00
2023-01-11T05:22:17.201Z,31.50
2023-01-11T05:27:19.284Z,31.80
2023-01-11T05:32:21.364Z,32.00
2023-01-11T05:37:23.492Z,32.10
2023-01-11T05:42:25.612Z,32.00
2023-01-11T05:52:30.527Z,32.40
2023-01-11T06:02:35.756Z,32.70
2023-01-11T06:12:40.492Z,33.00
2023-01-11T06:17:42.653Z,32.90
2023-01-11T06:22:44.753Z,33.20
2023-01-11T06:37:52.004Z,32.90
2023-01-11T06:47:56.965Z,33.00
2023-01-11T06:53:01.952Z,32.80
2023-01-11T06:58:04.217Z,32.70
2023-01-11T07:03:06.889Z,33.00
2023-01-11T07:08:08.919Z,32.80
2023-01-11T07:23:17.419Z,32.70
2023-01-11T07:28:19.588Z,33.00
2023-01-11T07:33:22.589Z,33.30
2023-01-11T07:43:27.416Z,33.40
2023-01-11T07:48:30.811Z,33.20
2023-01-11T07:58:35.548Z,33.20
2023-01-11T08:03:37.802Z,33.50
2023-01-11T08:14:01.457Z,33.80
2023-01-11T08:19:04.397Z,34.00
2023-01-11T08:24:06.760Z,33.80
2023-01-11T08:34:12.109Z,34.10
2023-01-11T08:39:14.589Z,34.40
2023-01-11T08:44:29.013Z,34.50
2023-01-11T08:49:35.378Z,34.90
2023-01-11T08:54:37.585Z,34.50
2023-01-11T08:59:39.766Z,34.90
2023-01-11T09:04:42.254Z,34.80
2023-01-11T09:09:44.417Z,34.80
2023-01-11T09:14:46.610Z,34.80
2023-01-11T09:19:48.779Z,35.10
2023-01-11T09:29:53.483Z,35.00
2023-01-11T09:34:58.262Z,35.30
2023-01-11T09:40:01.737Z,35.40
2023-01-11T09:55:23.118Z,35.60
2023-01-11T10:00:36.113Z,35.70
2023-01-11T10:06:06.878Z,35.60
2023-01-11T10:18:25.527Z,35.50
2023-01-11T10:22:58.259Z,35.90
2023-01-11T10:28:04.614Z,35.90
2023-01-11T10:33:25.303Z,35.80
2023-01-11T10:38:49.859Z,35.80
2023-01-11T10:44:18.979Z,36.00
2023-01-11T10:49:41.121Z,36.00
2023-01-11T10:54:47.413Z,36.00
2023-01-11T11:00:09.256Z,35.80
2023-01-11T11:05:30.271Z,36.00
2023-01-11T11:10:51.226Z,35.90
2023-01-11T11:16:10.443Z,35.80
2023-01-11T11:21:36.973Z,36.10
2023-01-11T11:26:53.806Z,36.20
2023-01-11T11:31:58.719Z,36.10
2023-01-11T11:37:01.467Z,36.10
2023-01-11T11:42:08.002Z,35.80
2023-01-11T11:47:17.499Z,35.80
2023-01-11T11:52:19.904Z,35.20
2023-01-11T11:57:33.964Z,34.90
2023-01-11T12:02:38.729Z,34.40
2023-01-11T12:07:54.650Z,33.80
2023-01-11T12:13:03.238Z,33.70
2023-01-11T12:18:26.999Z,33.30
2023-01-11T12:23:29.576Z,33.10
2023-01-11T12:28:37.160Z,32.60
2023-01-11T12:33:58.725Z,32.30
2023-01-11T12:39:05.033Z,32.60
2023-01-11T12:44:12.126Z,32.60
2023-01-11T12:49:30.969Z,32.40
2023-01-11T12:55:09.706Z,30.00
2023-01-11T13:00:14.735Z,31.00
2023-01-11T13:10:31.826Z,30.00
2023-01-11T13:15:43.982Z,29.00
2023-01-11T13:21:25.936Z,29.30
2023-01-11T13:26:39.009Z,29.50
2023-01-11T13:31:42.323Z,29.60
2023-01-11T13:36:48.847Z,29.30
2023-01-11T13:41:53.771Z,29.00
2023-01-11T13:47:01.743Z,28.30
2023-01-11T13:52:12.258Z,28.90
2023-01-11T13:57:30.355Z,28.10
2023-01-11T14:02:51.015Z,28.10
2023-01-11T14:08:00.880Z,28.90
2023-01-11T14:13:50.876Z,28.00
2023-01-11T14:19:31.623Z,28.00
2023-01-11T14:24:37.072Z,28.10
2023-01-11T14:29:48.154Z,27.90
2023-01-11T14:35:11.914Z,27.30
2023-01-11T14:40:34.268Z,27.20
2023-01-11T14:45:56.386Z,26.00
2023-01-11T14:51:17.114Z,26.10
2023-01-11T14:56:41.980Z,25.30
2023-01-11T15:02:03.119Z,25.20
2023-01-11T15:07:41.874Z,25.60
2023-01-11T15:12:44.056Z,25.80
2023-01-11T15:18:12.461Z,25.40
2023-01-11T15:23:17.476Z,24.90
2023-01-11T15:33:48.724Z,25.40
2023-01-11T15:38:56.695Z,25.50
2023-01-11T15:44:20.350Z,24.60
2023-01-11T15:49:41.007Z,24.90
2023-01-11T15:55:28.596Z,24.60
2023-01-11T16:00:36.165Z,24.90
2023-01-11T16:05:44.042Z,24.80
2023-01-11T16:11:08.263Z,24.60
2023-01-11T16:16:28.982Z,24.90
2023-01-11T16:21:36.472Z,24.90
2023-01-11T16:26:41.003Z,24.90
2023-01-11T16:32:02.884Z,24.90
2023-01-11T16:37:22.974Z,25.10
2023-01-11T16:42:29.708Z,25.40
2023-01-11T16:47:31.879Z,25.50
2023-01-11T16:57:45.532Z,25.50
2023-01-11T17:02:50.064Z,25.60
2023-01-11T17:07:52.162Z,25.60
2023-01-11T17:13:33.958Z,25.60
2023-01-11T17:18:41.063Z,25.70
2023-01-11T17:23:45.622Z,25.50
2023-01-11T17:28:50.116Z,25.50
2023-01-11T17:34:25.759Z,25.50
2023-01-11T17:39:34.534Z,25.70
2023-01-11T17:44:55.404Z,25.60
2023-01-11T17:50:01.035Z,25.70
2023-01-11T17:55:19.319Z,25.60
2023-01-11T18:00:28.026Z,25.60
2023-01-11T18:05:30.540Z,25.40
2023-01-11T18:15:38.431Z,25.50
2023-01-11T18:20:41.112Z,25.90
2023-01-11T18:30:54.413Z,26.10
2023-01-11T18:35:59.746Z,26.40
2023-01-11T18:41:27.164Z,26.40
2023-01-11T18:46:29.280Z,26.40
2023-01-11T18:51:40.170Z,26.60
2023-01-11T19:01:56.629Z,26.40
2023-01-11T19:07:06.908Z,26.40
2023-01-11T19:12:09.024Z,26.40
2023-01-11T19:17:12.307Z,26.40
2023-01-11T19:22:14.654Z,26.40
2023-01-11T19:27:16.921Z,26.50
2023-01-11T19:32:23.637Z,26.60
2023-01-11T19:37:27.633Z,26.70
2023-01-11T19:42:30.079Z,26.70
2023-01-11T19:47:32.247Z,26.90
2023-01-11T19:52:34.344Z,27.60
2023-01-11T19:57:36.716Z,27.60
2023-01-11T20:02:39.261Z,27.40
2023-01-11T20:07:41.380Z,28.20
2023-01-11T20:12:43.501Z,27.50
2023-01-11T20:17:45.617Z,27.30
2023-01-11T20:22:47.760Z,27.70
2023-01-11T20:27:49.841Z,27.50
2023-01-11T20:32:51.968Z,27.80
2023-01-11T20:37:54.076Z,27.80
2023-01-11T20:42:56.143Z,27.80
2023-01-11T20:47:59.327Z,27.70
2023-01-11T20:53:04.081Z,27.80
2023-01-11T20:58:06.167Z,28.30
2023-01-11T21:08:10.828Z,28.00
2023-01-11T21:18:15.946Z,28.20
2023-01-11T21:23:18.059Z,28.00
2023-01-11T21:28:20.304Z,28.00
2023-01-11T21:33:22.456Z,27.90
2023-01-11T21:38:24.601Z,27.70
2023-01-11T21:48:29.882Z,27.50
2023-01-11T21:53:33.046Z,27.30
2023-01-11T22:03:38.311Z,27.20
2023-01-11T22:08:41.569Z,27.20
2023-01-11T22:13:43.960Z,27.30
2023-01-11T22:18:46.379Z,27.20
2023-01-11T22:23:52.429Z,27.20
2023-01-11T22:29:15.034Z,27.20
2023-01-11T22:34:18.533Z,26.80
2023-01-11T22:39:21.490Z,26.90
2023-01-11T22:44:23.597Z,26.80
2023-01-11T22:49:26.508Z,26.40
2023-01-11T22:59:31.299Z,26.40
2023-01-11T23:09:36.342Z,26.50
2023-01-11T23:19:41.674Z,26.50
2023-01-11T23:24:43.854Z,26.60
2023-01-11T23:29:46.005Z,26.60
2023-01-11T23:34:48.153Z,26.60
2023-01-11T23:44:53.529Z,26.80
2023-01-11T23:49:57.652Z,26.50
2023-01-11T23:55:00.183Z,26.50
